createdAt,value
2022-08-28T00:00:49.148Z,12.69
2022-08-28T00:01:53.402Z,13.81
2022-08-28T00:02:58.012Z,15.94
2022-08-28T00:04:06.061Z,15.13
2022-08-28T00:05:11.327Z,15.94
2022-08-28T00:06:15.497Z,10.50
2022-08-28T00:07:19.909Z,9.19
2022-08-28T00:08:24.111Z,14.87
2022-08-28T00:09:28.203Z,17.25
2022-08-28T00:10:33.370Z,16.12
2022-08-28T00:11:38.058Z,16.00
2022-08-28T00:12:42.151Z,19.25
2022-08-28T00:13:47.451Z,14.00
2022-08-28T00:14:51.520Z,14.19
2022-08-28T00:15:58.827Z,14.38
2022-08-28T00:17:03.245Z,12.13
2022-08-28T00:18:09.028Z,13.06
2022-08-28T00:19:14.094Z,13.13
2022-08-28T00:20:21.793Z,15.88
2022-08-28T00:21:25.971Z,15.81
2022-08-28T00:22:30.055Z,13.88
2022-08-28T00:23:45.068Z,9.25
2022-08-28T00:24:41.383Z,17.37
2022-08-28T00:25:45.682Z,13.88
2022-08-28T00:26:51.687Z,13.25
2022-08-28T00:27:58.849Z,15.44
2022-08-28T00:29:04.929Z,10.63
2022-08-28T00:30:09.991Z,14.44
2022-08-28T00:31:14.082Z,16.87
2022-08-28T00:32:18.312Z,17.25
2022-08-28T00:33:55.964Z,14.00
2022-08-28T00:34:33.432Z,12.88
2022-08-28T00:35:36.972Z,16.56
2022-08-28T00:36:41.279Z,15.50
2022-08-28T00:37:46.568Z,9.94
2022-08-28T00:38:52.259Z,12.63
2022-08-28T00:39:56.455Z,11.38
2022-08-28T00:41:03.651Z,13.56
2022-08-28T00:42:08.352Z,13.13
2022-08-28T00:43:31.388Z,12.50
2022-08-28T00:44:35.432Z,16.56
2022-08-28T00:45:40.311Z,15.13
2022-08-28T00:46:47.260Z,11.50
2022-08-28T00:47:51.688Z,15.19
2022-08-28T00:48:57.379Z,16.44
2022-08-28T00:50:02.888Z,14.13
2022-08-28T00:51:07.309Z,12.50
2022-08-28T00:52:12.502Z,14.13
2022-08-28T00:53:16.936Z,12.00
2022-08-28T00:54:22.037Z,8.44
2022-08-28T00:55:28.484Z,10.31
2022-08-28T00:56:34.466Z,12.25
2022-08-28T00:57:41.464Z,10.56
2022-08-28T00:58:48.358Z,13.44
2022-08-28T00:59:53.059Z,10.88
2022-08-28T01:00:57.387Z,1.62
2022-08-28T01:02:02.207Z,14.81
2022-08-28T01:03:07.340Z,10.13
2022-08-28T01:04:14.486Z,13.38
2022-08-28T01:05:21.508Z,14.81
2022-08-28T01:06:25.675Z,14.94
2022-08-28T01:07:29.921Z,13.69
2022-08-28T01:08:38.319Z,11.81
2022-08-28T01:09:47.696Z,10.19
2022-08-28T01:10:54.768Z,12.31
2022-08-28T01:12:06.078Z,10.25
2022-08-28T01:13:10.917Z,14.63
2022-08-28T01:14:17.070Z,10.19
2022-08-28T01:15:24.031Z,13.25
2022-08-28T01:16:33.804Z,10.94
2022-08-28T01:19:10.685Z,11.88
2022-08-28T01:20:19.728Z,12.63
2022-08-28T01:20:56.108Z,11.00
2022-08-28T01:21:28.477Z,12.94
2022-08-28T01:22:35.266Z,13.75
2022-08-28T01:23:57.479Z,8.75
2022-08-28T01:25:04.523Z,14.19
2022-08-28T01:26:11.004Z,13.06
2022-08-28T01:27:14.482Z,10.50
2022-08-28T01:28:18.966Z,11.06
2022-08-28T01:29:23.034Z,10.56
2022-08-28T01:30:29.660Z,12.06
2022-08-28T01:31:36.704Z,11.25
2022-08-28T01:32:47.157Z,10.88
2022-08-28T01:33:51.676Z,10.19
2022-08-28T01:34:56.995Z,12.19
2022-08-28T01:36:03.989Z,14.75
2022-08-28T01:37:08.073Z,11.69
2022-08-28T01:38:19.326Z,7.94
2022-08-28T01:39:21.490Z,10.56
2022-08-28T01:40:28.967Z,15.50
2022-08-28T01:41:33.072Z,9.31
2022-08-28T01:42:40.170Z,9.94
2022-08-28T01:43:44.615Z,10.94
2022-08-28T01:44:48.795Z,7.62
2022-08-28T01:45:56.021Z,8.69
2022-08-28T01:47:00.760Z,12.94
2022-08-28T01:48:07.067Z,11.50
2022-08-28T01:49:11.859Z,13.75
2022-08-28T01:50:19.343Z,9.75
2022-08-28T01:51:25.406Z,11.50
2022-08-28T01:52:29.216Z,15.63
2022-08-28T01:53:33.715Z,12.13
2022-08-28T01:54:38.164Z,11.56
2022-08-28T01:55:43.855Z,11.88
2022-08-28T01:56:48.030Z,17.56
2022-08-28T01:57:54.787Z,9.63
2022-08-28T01:59:00.787Z,13.44
2022-08-28T02:00:05.544Z,13.50
2022-08-28T02:01:15.296Z,14.00
2022-08-28T02:02:20.955Z,17.50
2022-08-28T02:03:25.709Z,17.87
2022-08-28T02:04:31.960Z,14.25
2022-08-28T02:05:36.858Z,13.94
2022-08-28T02:06:41.296Z,19.37
2022-08-28T02:07:45.265Z,15.81
2022-08-28T02:08:49.265Z,19.31
2022-08-28T02:09:53.253Z,18.12
2022-08-28T02:10:57.292Z,16.44
2022-08-28T02:12:01.395Z,17.00
2022-08-28T02:13:06.742Z,15.94
2022-08-28T02:14:10.862Z,19.25
2022-08-28T02:15:15.069Z,17.75
2022-08-28T02:16:21.399Z,10.06
2022-08-28T02:17:25.479Z,20.75
2022-08-28T02:18:29.804Z,18.37
2022-08-28T02:19:33.837Z,16.50
2022-08-28T02:20:38.443Z,21.81
2022-08-28T02:21:42.667Z,19.87
2022-08-28T02:22:46.794Z,20.81
2022-08-28T02:23:51.259Z,19.00
2022-08-28T02:24:55.315Z,18.31
2022-08-28T02:26:01.129Z,16.44
2022-08-28T02:27:05.950Z,19.44
2022-08-28T02:28:10.050Z,17.25
2022-08-28T02:29:14.487Z,21.12
2022-08-28T02:30:20.627Z,16.75
2022-08-28T02:31:27.733Z,21.50
2022-08-28T02:32:33.276Z,18.44
2022-08-28T02:33:52.694Z,19.62
2022-08-28T02:34:48.526Z,16.25
2022-08-28T02:35:52.778Z,16.37
2022-08-28T02:36:58.459Z,17.12
2022-08-28T02:38:02.482Z,21.06
2022-08-28T02:39:08.056Z,16.94
2022-08-28T02:40:15.620Z,17.75
2022-08-28T02:41:34.392Z,18.81
2022-08-28T02:42:29.655Z,18.56
2022-08-28T02:43:36.993Z,19.44
2022-08-28T02:44:42.473Z,14.94
2022-08-28T02:45:46.525Z,13.94
2022-08-28T02:46:52.161Z,17.69
2022-08-28T02:47:57.858Z,16.25
2022-08-28T02:49:01.896Z,17.62
2022-08-28T02:50:08.036Z,17.87
2022-08-28T02:51:13.874Z,19.44
2022-08-28T02:52:18.199Z,17.75
2022-08-28T02:53:23.762Z,19.44
2022-08-28T02:54:29.358Z,16.44
2022-08-28T02:55:34.317Z,20.37
2022-08-28T02:56:38.548Z,19.12
2022-08-28T02:57:42.915Z,22.00
2022-08-28T02:58:47.011Z,19.69
2022-08-28T02:59:52.670Z,22.44
2022-08-28T03:00:59.293Z,17.25
2022-08-28T03:02:04.523Z,19.56
2022-08-28T03:03:10.379Z,18.00
2022-08-28T03:04:14.472Z,20.25
2022-08-28T03:05:21.822Z,17.94
2022-08-28T03:06:26.206Z,20.75
2022-08-28T03:07:30.452Z,22.13
2022-08-28T03:08:34.612Z,24.37
2022-08-28T03:09:38.707Z,22.50
2022-08-28T03:10:42.843Z,23.69
2022-08-28T03:11:46.818Z,24.50
2022-08-28T03:12:50.936Z,21.50
2022-08-28T03:13:55.191Z,17.69
2022-08-28T03:14:59.452Z,22.94
2022-08-28T03:16:05.925Z,24.87
2022-08-28T03:17:09.975Z,19.44
2022-08-28T03:18:15.925Z,19.81
2022-08-28T03:19:20.265Z,20.56
2022-08-28T03:20:24.810Z,19.87
2022-08-28T03:21:30.335Z,18.75
2022-08-28T03:22:34.454Z,21.00
2022-08-28T03:23:39.568Z,20.69
2022-08-28T03:24:44.046Z,22.06
2022-08-28T03:25:48.261Z,21.69
2022-08-28T03:26:52.366Z,17.81
2022-08-28T03:27:56.901Z,16.62
2022-08-28T03:29:02.662Z,22.31
2022-08-28T03:30:08.635Z,18.81
2022-08-28T03:31:16.096Z,21.81
2022-08-28T03:32:20.142Z,18.87
2022-08-28T03:33:25.399Z,20.19
2022-08-28T03:34:29.409Z,21.19
2022-08-28T03:35:33.547Z,19.00
2022-08-28T03:36:37.611Z,20.12
2022-08-28T03:37:41.648Z,21.50
2022-08-28T03:38:45.814Z,22.00
2022-08-28T03:39:49.941Z,19.69
2022-08-28T03:40:54.702Z,20.56
2022-08-28T03:41:58.753Z,22.75
2022-08-28T03:43:02.830Z,26.50
2022-08-28T03:44:10.477Z,21.87
2022-08-28T03:45:16.214Z,18.25
2022-08-28T03:46:24.094Z,16.31
2022-08-28T03:47:28.148Z,19.75
2022-08-28T03:48:36.899Z,19.44
2022-08-28T03:49:41.039Z,10.13
2022-08-28T03:50:46.262Z,19.75
2022-08-28T03:51:51.820Z,19.19
2022-08-28T03:52:55.815Z,21.12
2022-08-28T03:54:01.427Z,18.62
2022-08-28T03:55:07.180Z,16.62
2022-08-28T03:56:19.266Z,19.75
2022-08-28T03:57:23.719Z,17.69
2022-08-28T03:59:48.851Z,15.69
2022-08-28T04:00:46.676Z,20.12
2022-08-28T04:01:46.262Z,14.50
2022-08-28T04:01:50.830Z,18.56
2022-08-28T04:02:54.879Z,18.06
2022-08-28T04:03:59.027Z,15.06
2022-08-28T04:05:03.318Z,19.06
2022-08-28T04:06:07.721Z,19.37
2022-08-28T04:07:12.244Z,16.50
2022-08-28T04:08:18.936Z,20.12
2022-08-28T04:09:22.981Z,15.56
2022-08-28T04:10:27.197Z,17.62
2022-08-28T04:11:31.506Z,13.44
2022-08-28T04:12:35.540Z,14.75
2022-08-28T04:13:39.534Z,17.12
2022-08-28T04:14:43.728Z,14.13
2022-08-28T04:15:49.299Z,17.56
2022-08-28T04:16:53.563Z,15.88
2022-08-28T04:17:59.205Z,16.81
2022-08-28T04:19:03.615Z,19.56
2022-08-28T04:20:09.427Z,14.56
2022-08-28T04:21:22.749Z,19.50
2022-08-28T04:22:26.781Z,14.31
2022-08-28T04:23:30.896Z,21.00
2022-08-28T04:24:34.922Z,17.19
2022-08-28T04:25:41.118Z,19.81
2022-08-28T04:26:45.439Z,20.81
2022-08-28T04:27:50.837Z,16.75
2022-08-28T04:28:56.118Z,14.63
2022-08-28T04:30:00.405Z,15.81
2022-08-28T04:31:05.254Z,15.75
2022-08-28T04:32:10.918Z,20.81
2022-08-28T04:33:16.426Z,17.94
2022-08-28T04:34:24.494Z,17.00
2022-08-28T04:35:29.897Z,17.25
2022-08-28T04:36:35.725Z,16.69
2022-08-28T04:37:41.911Z,17.44
2022-08-28T04:38:47.585Z,17.94
2022-08-28T04:39:54.734Z,17.25
2022-08-28T04:41:01.860Z,24.06
2022-08-28T04:42:09.398Z,20.50
2022-08-28T04:43:13.452Z,17.87
2022-08-28T04:44:19.013Z,19.56
2022-08-28T04:45:23.015Z,20.37
2022-08-28T04:46:31.002Z,17.12
2022-08-28T04:47:38.242Z,17.44
2022-08-28T04:48:46.225Z,15.81
2022-08-28T04:49:53.094Z,17.56
2022-08-28T04:50:57.304Z,18.94
2022-08-28T04:52:03.148Z,20.00
2022-08-28T04:53:07.186Z,22.81
2022-08-28T04:55:14.975Z,23.19
2022-08-28T04:55:54.615Z,22.56
2022-08-28T04:56:32.569Z,18.81
2022-08-28T04:57:47.795Z,15.88
2022-08-28T04:58:44.187Z,20.12
2022-08-28T04:59:49.226Z,20.62
2022-08-28T05:00:55.109Z,17.44
2022-08-28T05:02:01.885Z,18.25
2022-08-28T05:03:08.771Z,19.69
2022-08-28T05:04:13.369Z,18.37
2022-08-28T05:05:20.393Z,18.31
2022-08-28T05:06:31.876Z,16.37
2022-08-28T05:22:55.661Z,11.56
2022-08-28T05:23:57.766Z,17.50
2022-08-28T05:25:03.389Z,20.31
2022-08-28T05:26:19.861Z,18.37
2022-08-28T05:27:32.039Z,21.81
2022-08-28T05:28:36.243Z,17.50
2022-08-28T05:29:46.746Z,19.75
2022-08-28T05:30:48.075Z,19.56
2022-08-28T05:31:52.126Z,22.44
2022-08-28T05:32:56.350Z,18.19
2022-08-28T05:34:02.157Z,22.44
2022-08-28T05:35:06.635Z,19.94
2022-08-28T05:36:13.031Z,23.38
2022-08-28T05:37:19.689Z,21.31
2022-08-28T05:38:22.815Z,26.06
2022-08-28T05:39:26.906Z,23.38
2022-08-28T05:40:32.468Z,19.50
2022-08-28T05:41:37.817Z,19.81
2022-08-28T05:42:41.807Z,18.37
2022-08-28T05:43:45.807Z,21.75
2022-08-28T05:44:50.258Z,25.62
2022-08-28T05:46:04.932Z,20.31
2022-08-28T05:47:10.129Z,19.87
2022-08-28T05:48:14.257Z,20.56
2022-08-28T05:49:19.273Z,22.44
2022-08-28T05:50:25.232Z,22.00
2022-08-28T05:51:34.353Z,21.50
2022-08-28T05:52:36.995Z,16.62
2022-08-28T05:53:53.927Z,22.94
2022-08-28T05:54:52.273Z,17.81
2022-08-28T05:56:00.518Z,20.88
2022-08-28T05:57:04.938Z,19.94
2022-08-28T05:58:09.041Z,21.44
2022-08-28T05:59:15.514Z,22.56
2022-08-28T06:00:21.120Z,23.12
2022-08-28T06:01:28.195Z,13.25
2022-08-28T06:02:32.511Z,23.69
2022-08-28T06:03:40.063Z,18.25
2022-08-28T06:04:44.218Z,23.12
2022-08-28T06:05:56.141Z,16.75
2022-08-28T06:07:00.137Z,23.44
2022-08-28T06:08:04.346Z,23.62
2022-08-28T06:09:17.536Z,22.19
2022-08-28T06:10:23.136Z,16.56
2022-08-28T06:11:30.507Z,19.44
2022-08-28T06:12:35.320Z,21.94
2022-08-28T06:13:39.314Z,20.31
2022-08-28T06:14:43.447Z,16.87
2022-08-28T06:15:49.375Z,22.56
2022-08-28T06:16:55.978Z,19.00
2022-08-28T06:18:01.075Z,18.00
2022-08-28T06:19:05.617Z,20.94
2022-08-28T06:20:10.490Z,21.31
2022-08-28T06:21:14.837Z,20.75
2022-08-28T06:22:18.834Z,20.75
2022-08-28T06:23:24.701Z,19.19
2022-08-28T06:24:30.023Z,23.50
2022-08-28T06:25:45.703Z,18.75
2022-08-28T06:26:49.952Z,23.19
2022-08-28T06:27:53.975Z,22.37
2022-08-28T06:29:03.997Z,20.31
2022-08-28T06:30:09.300Z,20.44
2022-08-28T06:31:23.305Z,29.94
2022-08-28T06:32:19.363Z,24.44
2022-08-28T06:33:24.504Z,25.44
2022-08-28T06:34:33.912Z,27.06
2022-08-28T06:35:42.803Z,19.62
2022-08-28T06:36:50.603Z,22.81
2022-08-28T06:37:52.827Z,27.00
2022-08-28T06:39:02.359Z,25.62
2022-08-28T06:40:05.720Z,21.25
2022-08-28T06:41:09.814Z,26.81
2022-08-28T06:42:15.363Z,27.69
2022-08-28T06:43:21.761Z,23.75
2022-08-28T06:44:27.445Z,28.38
2022-08-28T06:45:33.135Z,24.94
2022-08-28T06:46:38.056Z,20.19
2022-08-28T06:47:43.045Z,23.38
2022-08-28T06:48:47.068Z,26.25
2022-08-28T06:49:51.170Z,20.31
2022-08-28T06:50:57.567Z,20.88
2022-08-28T06:52:01.738Z,21.31
2022-08-28T06:53:06.571Z,21.31
2022-08-28T06:54:11.783Z,20.31
2022-08-28T06:55:15.853Z,23.75
2022-08-28T06:56:25.927Z,21.62
2022-08-28T06:57:28.544Z,21.19
2022-08-28T06:58:33.047Z,21.81
2022-08-28T06:59:37.075Z,18.25
2022-08-28T07:00:42.172Z,16.25
2022-08-28T07:01:46.323Z,21.50
2022-08-28T07:02:51.947Z,19.50
2022-08-28T07:04:01.599Z,17.75
2022-08-28T07:05:06.175Z,16.94
2022-08-28T07:06:12.901Z,17.37
2022-08-28T07:07:31.564Z,17.25
2022-08-28T07:08:26.314Z,18.19
2022-08-28T07:09:30.290Z,21.87
2022-08-28T07:10:35.847Z,23.75
2022-08-28T07:11:42.956Z,16.56
2022-08-28T07:12:48.446Z,15.00
2022-08-28T07:13:53.158Z,15.88
2022-08-28T07:15:00.536Z,17.12
2022-08-28T07:16:04.822Z,21.62
2022-08-28T07:17:09.059Z,17.31
2022-08-28T07:18:13.422Z,20.69
2022-08-28T07:19:17.712Z,18.12
2022-08-28T07:20:22.856Z,17.75
2022-08-28T07:21:27.666Z,14.38
2022-08-28T07:22:34.719Z,16.25
2022-08-28T07:23:39.747Z,15.63
2022-08-28T07:24:45.302Z,15.63
2022-08-28T07:25:49.265Z,14.69
2022-08-28T07:26:53.596Z,14.63
2022-08-28T07:27:57.715Z,17.81
2022-08-28T07:29:09.852Z,19.37
2022-08-28T07:30:09.768Z,17.94
2022-08-28T07:31:19.815Z,18.37
2022-08-28T07:32:24.352Z,20.75
2022-08-28T07:33:29.934Z,19.06
2022-08-28T07:34:39.498Z,20.19
2022-08-28T07:35:44.344Z,20.62
2022-08-28T07:36:49.408Z,18.75
2022-08-28T07:37:53.463Z,22.56
2022-08-28T07:38:59.302Z,20.88
2022-08-28T07:40:03.800Z,18.00
2022-08-28T07:41:26.823Z,17.56
2022-08-28T07:42:35.557Z,19.44
2022-08-28T07:43:38.093Z,17.00
2022-08-28T07:44:42.115Z,17.19
2022-08-28T07:45:46.290Z,15.00
2022-08-28T07:46:58.203Z,16.50
2022-08-28T07:48:08.480Z,18.25
2022-08-28T07:49:14.075Z,17.06
2022-08-28T07:50:19.865Z,15.13
2022-08-28T07:51:28.329Z,16.69
2022-08-28T07:52:32.406Z,16.62
2022-08-28T07:53:36.897Z,15.88
2022-08-28T07:54:40.976Z,16.50
2022-08-28T07:55:45.147Z,18.44
2022-08-28T07:56:49.309Z,15.88
2022-08-28T07:57:54.840Z,18.81
2022-08-28T07:59:01.343Z,19.06
2022-08-28T08:00:07.260Z,16.12
2022-08-28T08:01:11.348Z,14.87
2022-08-28T08:02:16.660Z,15.88
2022-08-28T08:03:24.022Z,17.81
2022-08-28T08:04:28.026Z,17.00
2022-08-28T08:05:32.114Z,17.94
2022-08-28T08:06:37.745Z,16.25
2022-08-28T08:07:41.961Z,17.06
2022-08-28T08:08:47.457Z,18.62
2022-08-28T08:09:51.446Z,18.81
2022-08-28T08:11:04.082Z,17.12
2022-08-28T08:12:12.530Z,15.06
2022-08-28T08:13:16.633Z,18.56
2022-08-28T08:14:21.259Z,14.50
2022-08-28T08:15:32.020Z,13.25
2022-08-28T08:16:36.041Z,17.31
2022-08-28T08:17:40.188Z,14.44
2022-08-28T08:18:48.332Z,14.75
2022-08-28T08:22:19.934Z,16.69
2022-08-28T08:23:24.153Z,16.37
2022-08-28T08:24:28.955Z,15.81
2022-08-28T08:25:33.569Z,14.38
2022-08-28T08:26:39.005Z,15.19
2022-08-28T08:27:43.279Z,13.00
2022-08-28T08:28:49.090Z,7.87
2022-08-28T08:29:53.028Z,13.88
2022-08-28T08:31:14.655Z,15.00
2022-08-28T08:32:18.774Z,16.94
2022-08-28T08:33:22.809Z,17.50
2022-08-28T08:34:28.407Z,17.25
2022-08-28T08:35:35.196Z,16.12
2022-08-28T08:36:43.559Z,13.31
2022-08-28T08:37:49.232Z,16.00
2022-08-28T08:38:59.856Z,12.75
2022-08-28T08:40:08.728Z,15.19
2022-08-28T08:41:14.635Z,17.81
2022-08-28T08:42:29.096Z,17.69
2022-08-28T08:43:36.270Z,18.56
2022-08-28T08:44:44.856Z,15.06
2022-08-28T08:46:01.611Z,11.94
2022-08-28T08:47:20.361Z,14.94
2022-08-28T08:48:35.591Z,13.62
2022-08-28T08:49:48.617Z,16.12
2022-08-28T08:50:53.027Z,17.56
2022-08-28T08:52:08.521Z,16.12
2022-08-28T08:53:34.934Z,17.00
2022-08-28T08:54:44.032Z,14.44
2022-08-28T08:55:53.671Z,13.75
2022-08-28T08:57:02.568Z,13.69
2022-08-28T08:58:09.602Z,12.44
2022-08-28T08:59:22.202Z,14.50
2022-08-28T09:00:26.322Z,15.19
2022-08-28T09:01:51.534Z,13.50
2022-08-28T09:03:08.969Z,14.31
2022-08-28T09:05:20.449Z,14.44
2022-08-28T09:06:08.100Z,14.00
2022-08-28T09:07:15.150Z,15.00
2022-08-28T09:08:44.275Z,9.06
2022-08-28T09:09:55.161Z,14.00
2022-08-28T09:11:16.425Z,14.87
2022-08-28T09:12:33.745Z,11.19
2022-08-28T09:13:49.112Z,13.88
2022-08-28T09:15:02.314Z,9.31
2022-08-28T09:18:38.670Z,12.88
2022-08-28T09:19:55.301Z,10.00
2022-08-28T09:20:33.559Z,11.12
2022-08-28T09:21:46.521Z,13.00
2022-08-28T09:23:12.753Z,11.50
2022-08-28T09:24:14.034Z,13.56
2022-08-28T09:25:12.665Z,12.69
2022-08-28T09:26:25.951Z,12.88
2022-08-28T09:27:33.019Z,13.69
2022-08-28T09:28:41.726Z,10.38
2022-08-28T09:29:48.701Z,12.81
2022-08-28T09:31:03.586Z,11.94
2022-08-28T09:32:31.513Z,11.75
2022-08-28T09:33:44.244Z,14.94
2022-08-28T09:35:04.813Z,13.25
2022-08-28T09:36:26.867Z,11.19
2022-08-28T09:37:32.847Z,10.38
2022-08-28T09:38:38.485Z,12.56
2022-08-28T09:39:46.657Z,12.75
2022-08-28T09:40:50.517Z,11.69
2022-08-28T09:42:06.726Z,11.44
2022-08-28T09:43:20.052Z,11.25
2022-08-28T09:44:24.091Z,14.19
2022-08-28T09:45:32.347Z,12.37
2022-08-28T09:46:38.246Z,15.75
2022-08-28T09:47:58.788Z,13.62
2022-08-28T09:49:11.680Z,13.44
2022-08-28T09:50:25.800Z,13.31
2022-08-28T09:51:30.585Z,13.44
2022-08-28T09:52:36.899Z,14.06
2022-08-28T09:53:58.626Z,13.75
2022-08-28T09:55:06.248Z,10.50
2022-08-28T09:56:22.968Z,11.06
2022-08-28T09:57:37.181Z,13.75
2022-08-28T09:58:46.541Z,11.81
2022-08-28T09:59:57.152Z,14.06
2022-08-28T10:01:05.052Z,9.75
2022-08-28T10:02:13.872Z,16.00
2022-08-28T10:03:24.273Z,13.81
2022-08-28T10:04:34.096Z,11.44
2022-08-28T10:05:41.570Z,10.50
2022-08-28T10:07:00.796Z,8.94
2022-08-28T10:08:09.614Z,12.06
2022-08-28T10:09:32.475Z,16.06
2022-08-28T10:11:04.450Z,9.63
2022-08-28T10:12:21.776Z,9.13
2022-08-28T10:13:42.164Z,9.88
2022-08-28T10:15:04.177Z,10.31
2022-08-28T10:16:35.220Z,13.75
2022-08-28T10:18:07.341Z,9.50
2022-08-28T10:19:26.117Z,11.44
2022-08-28T10:20:52.654Z,11.69
2022-08-28T10:22:13.328Z,11.56
2022-08-28T10:23:18.048Z,15.06
2022-08-28T10:24:39.663Z,10.00
2022-08-28T10:26:03.435Z,13.13
2022-08-28T10:27:30.800Z,11.25
2022-08-28T10:28:54.668Z,14.19
2022-08-28T10:30:12.503Z,12.44
2022-08-28T10:31:40.364Z,13.44
2022-08-28T10:32:49.971Z,13.31
2022-08-28T10:34:09.407Z,13.06
2022-08-28T10:35:19.340Z,11.94
2022-08-28T10:36:33.949Z,12.44
2022-08-28T10:37:41.312Z,7.62
2022-08-28T10:38:53.162Z,13.69
2022-08-28T10:40:00.707Z,10.81
2022-08-28T10:41:09.065Z,12.94
2022-08-28T10:42:14.743Z,10.69
2022-08-28T10:43:27.684Z,17.25
2022-08-28T10:44:37.655Z,10.75
2022-08-28T10:45:43.200Z,9.13
2022-08-28T10:46:52.733Z,11.94
2022-08-28T10:47:59.755Z,12.44
2022-08-28T10:49:08.134Z,11.75
2022-08-28T10:50:30.364Z,12.75
2022-08-28T10:51:44.459Z,8.19
2022-08-28T10:53:12.543Z,10.06
2022-08-28T10:54:22.717Z,10.56
2022-08-28T10:55:50.645Z,10.88
2022-08-28T10:56:58.433Z,6.75
2022-08-28T10:58:24.565Z,7.25
2022-08-28T10:59:27.646Z,10.88
2022-08-28T11:00:26.657Z,9.94
2022-08-28T11:01:33.700Z,9.06
2022-08-28T11:02:39.871Z,10.19
2022-08-28T11:03:46.998Z,10.06
2022-08-28T11:04:55.353Z,9.06
2022-08-28T11:06:02.351Z,10.56
2022-08-28T11:07:09.430Z,9.50
2022-08-28T11:08:29.491Z,8.69
2022-08-28T11:09:40.997Z,3.25
2022-08-28T11:10:50.871Z,11.50
2022-08-28T11:12:05.417Z,8.81
2022-08-28T11:13:28.569Z,9.88
2022-08-28T11:14:48.376Z,10.63
2022-08-28T11:15:51.556Z,5.31
2022-08-28T11:17:04.514Z,11.38
2022-08-28T11:18:12.475Z,9.31
2022-08-28T11:19:25.494Z,9.31
2022-08-28T11:20:31.962Z,8.63
2022-08-28T11:21:54.503Z,7.50
2022-08-28T11:23:02.555Z,10.25
2022-08-28T11:24:23.000Z,7.44
2022-08-28T11:25:32.879Z,11.00
2022-08-28T11:26:39.907Z,10.38
2022-08-28T11:28:14.184Z,11.06
2022-08-28T11:29:55.737Z,14.19
2022-08-28T11:31:03.256Z,8.88
2022-08-28T11:32:35.504Z,12.31
2022-08-28T11:33:42.230Z,11.25
2022-08-28T11:35:08.705Z,10.94
2022-08-28T11:36:23.008Z,8.31
2022-08-28T11:37:35.906Z,9.13
2022-08-28T11:38:45.944Z,9.50
2022-08-28T11:39:51.316Z,9.06
2022-08-28T11:40:57.271Z,15.06
2022-08-28T11:42:13.711Z,8.19
2022-08-28T11:43:20.721Z,9.06
2022-08-28T11:44:28.040Z,10.63
2022-08-28T11:45:48.332Z,10.44
2022-08-28T11:46:54.309Z,10.56
2022-08-28T11:48:00.027Z,12.19
2022-08-28T11:49:07.466Z,11.38
2022-08-28T11:50:24.117Z,8.56
2022-08-28T11:51:48.372Z,7.06
2022-08-28T11:53:17.889Z,5.25
2022-08-28T11:54:24.889Z,8.31
2022-08-28T11:55:34.462Z,10.44
2022-08-28T11:57:01.079Z,8.75
2022-08-28T11:59:13.886Z,7.62
2022-08-28T12:00:30.381Z,10.00
2022-08-28T12:01:35.661Z,7.25
2022-08-28T12:02:43.059Z,8.75
2022-08-28T12:04:08.074Z,10.25
2022-08-28T12:05:14.286Z,6.50
2022-08-28T12:06:39.188Z,9.19
2022-08-28T12:07:46.603Z,8.88
2022-08-28T12:09:03.312Z,9.25
2022-08-28T12:10:28.196Z,9.94
2022-08-28T12:11:44.024Z,9.50
2022-08-28T12:12:50.967Z,0.88
2022-08-28T12:13:55.003Z,10.13
2022-08-28T12:15:03.195Z,8.25
2022-08-28T12:16:26.297Z,8.19
2022-08-28T12:18:11.768Z,8.19
2022-08-28T12:18:46.078Z,11.19
2022-08-28T12:20:14.058Z,11.50
2022-08-28T12:21:25.766Z,9.44
2022-08-28T12:24:23.120Z,12.75
2022-08-28T12:25:35.645Z,12.31
2022-08-28T12:26:44.194Z,8.31
2022-08-28T12:27:48.434Z,14.25
2022-08-28T12:29:11.634Z,12.13
2022-08-28T12:30:20.229Z,13.00
2022-08-28T12:31:43.504Z,15.56
2022-08-28T12:32:50.525Z,12.44
2022-08-28T12:34:00.540Z,10.31
2022-08-28T12:35:11.757Z,15.13
2022-08-28T12:36:18.613Z,10.25
2022-08-28T12:37:39.873Z,11.25
2022-08-28T12:38:42.313Z,9.94
2022-08-28T12:39:46.397Z,12.25
2022-08-28T12:40:52.737Z,10.81
2022-08-28T12:41:59.513Z,11.38
2022-08-28T12:43:09.268Z,12.81
2022-08-28T12:44:15.032Z,16.12
2022-08-28T12:45:29.376Z,9.44
2022-08-28T12:46:45.143Z,13.06
2022-08-28T12:47:55.607Z,10.94
2022-08-28T12:49:17.275Z,16.06
2022-08-28T12:50:28.189Z,11.25
2022-08-28T12:51:42.962Z,12.94
2022-08-28T12:53:41.614Z,14.81
2022-08-28T12:54:04.291Z,11.75
2022-08-28T12:55:10.056Z,11.81
2022-08-28T12:56:20.211Z,13.50
2022-08-28T12:57:25.043Z,13.75
2022-08-28T12:58:35.162Z,15.19
2022-08-28T12:59:42.124Z,14.75
2022-08-28T13:00:56.882Z,8.56
2022-08-28T13:02:06.739Z,10.94
2022-08-28T13:03:10.885Z,13.00
2022-08-28T13:04:31.097Z,13.13
2022-08-28T13:05:38.118Z,14.87
2022-08-28T13:06:42.313Z,12.19
2022-08-28T13:07:52.595Z,14.87
2022-08-28T13:09:06.781Z,13.88
2022-08-28T13:10:27.247Z,14.31
2022-08-28T13:11:34.226Z,15.06
2022-08-28T13:12:56.312Z,16.06
2022-08-28T13:15:09.383Z,13.94
2022-08-28T13:16:05.693Z,11.00
2022-08-28T13:17:13.654Z,15.00
2022-08-28T13:18:38.442Z,14.00
2022-08-28T13:19:42.636Z,16.00
2022-08-28T13:20:25.581Z,18.25
2022-08-28T13:20:49.725Z,12.69
2022-08-28T13:21:58.462Z,14.81
2022-08-28T13:23:24.488Z,14.38
2022-08-28T13:24:26.546Z,11.38
2022-08-28T13:25:36.736Z,17.19
2022-08-28T13:26:41.261Z,16.69
2022-08-28T13:27:54.674Z,15.75
2022-08-28T13:29:02.239Z,13.75
2022-08-28T13:30:18.510Z,15.06
2022-08-28T13:31:35.630Z,11.44
2022-08-28T13:32:42.906Z,13.62
2022-08-28T13:34:06.184Z,13.94
2022-08-28T13:35:24.039Z,13.88
2022-08-28T13:36:30.212Z,12.25
2022-08-28T13:37:47.486Z,13.19
2022-08-28T13:38:54.355Z,13.13
2022-08-28T13:40:30.249Z,15.75
2022-08-28T13:44:04.153Z,12.25
2022-08-28T13:45:11.941Z,17.25
2022-08-28T13:46:23.998Z,15.69
2022-08-28T13:48:39.631Z,17.12
2022-08-28T13:49:07.983Z,9.25
2022-08-28T13:49:53.571Z,14.06
2022-08-28T13:51:10.648Z,15.50
2022-08-28T13:52:24.930Z,14.44
2022-08-28T13:53:25.875Z,19.00
2022-08-28T13:54:32.684Z,14.75
2022-08-28T13:55:40.546Z,14.19
2022-08-28T13:57:36.319Z,18.62
2022-08-28T13:58:05.485Z,17.81
2022-08-28T13:59:01.529Z,19.62
2022-08-28T14:00:08.978Z,16.62
2022-08-28T14:01:13.336Z,16.69
2022-08-28T14:02:19.067Z,17.87
2022-08-28T14:03:24.742Z,18.62
2022-08-28T14:04:33.293Z,17.06
2022-08-28T14:05:37.397Z,19.75
2022-08-28T14:06:47.497Z,16.19
2022-08-28T14:09:18.626Z,15.88
2022-08-28T14:11:33.628Z,14.31
2022-08-28T14:12:47.199Z,15.56
2022-08-28T14:13:47.161Z,13.69
2022-08-28T14:14:07.250Z,15.19
2022-08-28T14:15:17.474Z,14.94
2022-08-28T14:19:06.350Z,18.00
2022-08-28T14:20:17.912Z,16.06
2022-08-28T14:22:55.107Z,16.37
2022-08-28T14:24:01.500Z,15.13
2022-08-28T14:25:07.578Z,13.81
2022-08-28T14:26:14.948Z,13.19
2022-08-28T14:27:19.142Z,13.50
2022-08-28T14:28:23.119Z,15.31
2022-08-28T14:29:27.146Z,11.31
2022-08-28T14:30:31.400Z,13.62
2022-08-28T14:31:37.155Z,16.62
2022-08-28T14:32:42.767Z,14.19
2022-08-28T14:33:46.714Z,15.00
2022-08-28T14:34:52.356Z,13.69
2022-08-28T14:35:56.357Z,12.94
2022-08-28T14:37:00.740Z,14.25
2022-08-28T14:38:06.768Z,12.69
2022-08-28T14:40:21.090Z,12.13
2022-08-28T14:41:25.937Z,15.44
2022-08-28T14:42:30.053Z,18.19
2022-08-28T14:43:34.094Z,13.50
2022-08-28T14:44:39.578Z,11.50
2022-08-28T14:45:49.070Z,12.25
2022-08-28T14:46:56.966Z,15.13
2022-08-28T14:48:04.162Z,14.38
2022-08-28T14:49:17.139Z,17.69
2022-08-28T14:50:19.939Z,13.75
2022-08-28T14:51:29.354Z,13.81
2022-08-28T14:52:30.128Z,20.00
2022-08-28T14:53:34.153Z,21.37
2022-08-28T14:54:41.714Z,11.06
2022-08-28T14:55:51.411Z,14.94
2022-08-28T14:56:57.129Z,14.87
2022-08-28T14:58:01.104Z,17.12
2022-08-28T14:59:07.191Z,18.25
2022-08-28T15:00:16.257Z,13.94
2022-08-28T15:01:26.811Z,15.06
2022-08-28T15:02:32.301Z,10.81
2022-08-28T15:03:36.498Z,10.06
2022-08-28T15:04:41.861Z,11.19
2022-08-28T15:05:46.300Z,9.50
2022-08-28T15:06:52.553Z,12.13
2022-08-28T15:07:56.606Z,9.75
2022-08-28T15:09:02.165Z,9.19
2022-08-28T15:10:06.619Z,9.81
2022-08-28T15:11:18.330Z,10.63
2022-08-28T15:12:21.128Z,9.56
2022-08-28T15:13:25.804Z,11.75
2022-08-28T15:14:31.691Z,9.00